UPS342 UWKD-URWA
Flight info
| Callsign | UPS342 |
|---|---|
| Flight time | N/A |
| Altitude | 32000 |
| Route | SONUM1G SONUM T766 DOGIT P165 DAFOS P135 UROBO R807 MOLED/K0880F330 N50 LIDUS/K0874F340 G242 OMIRA OMIRA5L |
| Aircraft | MD11/H-SDE1E2E3FGHIJ2J3J4J5M1RWXY/LB1D1 |
Departure
| Time | 2026-05-07 18:06 |
|---|---|
| Airport | Kazan International Airport (UWKD) |
Arrival
| Time | N/A |
|---|---|
| Airport | Astrakhan Narimanovo Boris M. Kustodiev International Airport (URWA) |
| Time | Latitude | Longitude | Altitude | Speed | Heading |
|---|---|---|---|---|---|
| 2026-05-07 17:19 | 55.61062 | 49.28044 | 420 ft | 0 kts | 214° |
| 2026-05-07 17:59 | 55.61062 | 49.28043 | 421 ft | 0 kts | 214° |
| 2026-05-07 17:59 | 55.61058 | 49.28039 | 421 ft | 1 kts | 214° |
| 2026-05-07 17:59 | 55.61049 | 49.28029 | 421 ft | 2 kts | 208° |
| 2026-05-07 18:00 | 55.61037 | 49.28026 | 421 ft | 1 kts | 169° |
| 2026-05-07 18:00 | 55.61024 | 49.28042 | 421 ft | 2 kts | 132° |
| 2026-05-07 18:00 | 55.61009 | 49.28073 | 421 ft | 3 kts | 129° |
| 2026-05-07 18:00 | 55.60989 | 49.28111 | 421 ft | 4 kts | 141° |
| 2026-05-07 18:01 | 55.60955 | 49.28133 | 421 ft | 5 kts | 180° |
| 2026-05-07 18:01 | 55.60912 | 49.28108 | 421 ft | 7 kts | 207° |
| 2026-05-07 18:01 | 55.60865 | 49.28029 | 421 ft | 12 kts | 248° |
| 2026-05-07 18:01 | 55.60891 | 49.27856 | 421 ft | 18 kts | 302° |
| 2026-05-07 18:02 | 55.61054 | 49.27432 | 421 ft | 21 kts | 304° |
| 2026-05-07 18:02 | 55.61139 | 49.27213 | 421 ft | 22 kts | 304° |
| 2026-05-07 18:02 | 55.61226 | 49.26989 | 421 ft | 22 kts | 304° |
| 2026-05-07 18:03 | 55.61314 | 49.26761 | 421 ft | 22 kts | 304° |
| 2026-05-07 18:03 | 55.61402 | 49.26531 | 421 ft | 22 kts | 304° |
| 2026-05-07 18:03 | 55.61493 | 49.26301 | 421 ft | 23 kts | 304° |
| 2026-05-07 18:03 | 55.61585 | 49.26065 | 421 ft | 23 kts | 304° |
| 2026-05-07 18:04 | 55.61676 | 49.25829 | 421 ft | 23 kts | 304° |
| 2026-05-07 18:04 | 55.61768 | 49.25592 | 421 ft | 22 kts | 304° |
| 2026-05-07 18:04 | 55.61841 | 49.25368 | 421 ft | 19 kts | 275° |
| 2026-05-07 18:04 | 55.61774 | 49.25192 | 421 ft | 12 kts | 213° |
| 2026-05-07 18:05 | 55.61691 | 49.25171 | 421 ft | 12 kts | 150° |
| 2026-05-07 18:05 | 55.61666 | 49.25209 | 421 ft | 0 kts | 133° |
| 2026-05-07 18:05 | 55.61630 | 49.25288 | 421 ft | 33 kts | 125° |
| 2026-05-07 18:06 | 55.61361 | 49.25986 | 421 ft | 103 kts | 124° |
| 2026-05-07 18:06 | 55.60835 | 49.27352 | 421 ft | 161 kts | 123° |
| 2026-05-07 18:06 | 55.60171 | 49.29099 | 549 ft | 188 kts | 123° |
| 2026-05-07 18:06 | 55.59422 | 49.30940 | 1100 ft | 185 kts | 123° |
| 2026-05-07 18:07 | 55.58701 | 49.32749 | 1793 ft | 179 kts | 121° |
| 2026-05-07 18:07 | 55.58000 | 49.34572 | 2295 ft | 186 kts | 121° |
| 2026-05-07 18:07 | 55.57232 | 49.36585 | 2528 ft | 206 kts | 122° |
| 2026-05-07 18:07 | 55.56402 | 49.38750 | 2937 ft | 220 kts | 122° |
| 2026-05-07 18:08 | 55.55526 | 49.41007 | 3548 ft | 228 kts | 123° |
| 2026-05-07 18:08 | 55.54419 | 49.42997 | 4154 ft | 237 kts | 150° |
| 2026-05-07 18:08 | 55.52856 | 49.43807 | 4791 ft | 241 kts | 178° |
| 2026-05-07 18:08 | 55.51203 | 49.43118 | 5264 ft | 248 kts | 210° |
| 2026-05-07 18:09 | 55.49955 | 49.41052 | 5758 ft | 251 kts | 240° |
| 2026-05-07 18:09 | 55.49197 | 49.38302 | 5903 ft | 254 kts | 239° |
| 2026-05-07 18:09 | 55.48007 | 49.36039 | 5946 ft | 253 kts | 216° |
| 2026-05-07 18:09 | 55.46497 | 49.34418 | 5915 ft | 255 kts | 206° |
| 2026-05-07 18:10 | 55.44906 | 49.33056 | 6010 ft | 260 kts | 204° |
| 2026-05-07 18:10 | 55.43290 | 49.31779 | 6852 ft | 255 kts | 204° |
| 2026-05-07 18:10 | 55.41667 | 49.30511 | 7519 ft | 259 kts | 204° |
| 2026-05-07 18:10 | 55.40013 | 49.29217 | 7941 ft | 261 kts | 204° |
| 2026-05-07 18:11 | 55.38336 | 49.27916 | 7615 ft | 272 kts | 204° |
| 2026-05-07 18:11 | 55.37169 | 49.27028 | 7140 ft | 276 kts | 202° |
| 2026-05-07 18:11 | 55.34901 | 49.25283 | 6936 ft | 259 kts | 204° |
| 2026-05-07 18:11 | 55.33261 | 49.24006 | 7043 ft | 261 kts | 203° |
| 2026-05-07 18:12 | 55.31623 | 49.22739 | 7193 ft | 260 kts | 204° |
| 2026-05-07 18:12 | 55.29995 | 49.21479 | 7334 ft | 255 kts | 204° |
| 2026-05-07 18:12 | 55.28376 | 49.20222 | 7589 ft | 261 kts | 204° |
| 2026-05-07 18:12 | 55.26651 | 49.18847 | 7876 ft | 283 kts | 204° |
| 2026-05-07 18:13 | 55.24803 | 49.17437 | 8121 ft | 296 kts | 203° |
| 2026-05-07 18:13 | 55.22893 | 49.15986 | 8354 ft | 303 kts | 204° |
| 2026-05-07 18:13 | 55.20982 | 49.14519 | 8574 ft | 305 kts | 204° |
| 2026-05-07 18:13 | 55.19017 | 49.13000 | 8281 ft | 311 kts | 205° |
| 2026-05-07 18:14 | 55.17167 | 49.11078 | 8607 ft | 309 kts | 219° |
| 2026-05-07 18:14 | 55.15641 | 49.08459 | 9149 ft | 310 kts | 234° |
| 2026-05-07 18:14 | 55.14492 | 49.05320 | 9394 ft | 307 kts | 242° |
| 2026-05-07 18:14 | 55.13430 | 49.02064 | 9652 ft | 306 kts | 241° |
| 2026-05-07 18:15 | 55.12345 | 48.98869 | 9902 ft | 306 kts | 240° |
| 2026-05-07 18:15 | 55.11245 | 48.95729 | 10159 ft | 314 kts | 240° |
| 2026-05-07 18:15 | 55.10057 | 48.92371 | 10450 ft | 337 kts | 240° |
| 2026-05-07 18:15 | 55.08775 | 48.88774 | 10573 ft | 365 kts | 240° |
| 2026-05-07 18:16 | 55.07382 | 48.84874 | 10862 ft | 386 kts | 239° |
| 2026-05-07 18:16 | 55.05953 | 48.80875 | 11539 ft | 396 kts | 239° |
| 2026-05-07 18:16 | 55.04499 | 48.76802 | 12369 ft | 400 kts | 239° |
| 2026-05-07 18:16 | 55.03019 | 48.72651 | 13193 ft | 404 kts | 239° |
| 2026-05-07 18:17 | 55.01536 | 48.68494 | 14023 ft | 407 kts | 239° |
| 2026-05-07 18:17 | 55.00053 | 48.64331 | 14792 ft | 411 kts | 239° |
| 2026-05-07 18:17 | 54.98557 | 48.60124 | 15506 ft | 415 kts | 239° |
| 2026-05-07 18:17 | 54.97038 | 48.55843 | 16207 ft | 420 kts | 239° |
| 2026-05-07 18:18 | 54.95497 | 48.51502 | 16877 ft | 425 kts | 240° |
| 2026-05-07 18:18 | 54.93947 | 48.47131 | 17569 ft | 427 kts | 240° |
| 2026-05-07 18:18 | 54.92392 | 48.42734 | 17869 ft | 428 kts | 240° |
| 2026-05-07 18:18 | 54.90830 | 48.38320 | 17911 ft | 429 kts | 240° |
| 2026-05-07 18:19 | 54.89292 | 48.33959 | 17946 ft | 430 kts | 240° |
| 2026-05-07 18:19 | 54.87841 | 48.29421 | 17941 ft | 430 kts | 244° |
| 2026-05-07 18:19 | 54.86588 | 48.24639 | 17936 ft | 430 kts | 250° |
| 2026-05-07 18:19 | 54.85646 | 48.19726 | 17944 ft | 429 kts | 255° |
| 2026-05-07 18:20 | 54.84871 | 48.14809 | 17936 ft | 429 kts | 256° |
| 2026-05-07 18:20 | 54.84093 | 48.09805 | 17945 ft | 428 kts | 256° |
| 2026-05-07 18:20 | 54.83309 | 48.04802 | 17940 ft | 429 kts | 256° |
| 2026-05-07 18:20 | 54.82521 | 47.99767 | 18624 ft | 430 kts | 256° |
| 2026-05-07 18:21 | 54.81727 | 47.94707 | 19333 ft | 433 kts | 256° |
| 2026-05-07 18:21 | 54.80937 | 47.89679 | 19865 ft | 434 kts | 256° |
| 2026-05-07 18:21 | 54.80143 | 47.84604 | 19916 ft | 435 kts | 256° |
| 2026-05-07 18:21 | 54.79359 | 47.79601 | 19942 ft | 436 kts | 256° |
| 2026-05-07 18:22 | 54.78562 | 47.74491 | 19950 ft | 437 kts | 256° |
| 2026-05-07 18:22 | 54.78037 | 47.71113 | 19949 ft | 437 kts | 256° |
| 2026-05-07 18:22 | 54.76985 | 47.64330 | 20228 ft | 441 kts | 256° |
| 2026-05-07 18:22 | 54.76201 | 47.59245 | 20981 ft | 442 kts | 256° |
| 2026-05-07 18:23 | 54.75406 | 47.54085 | 21585 ft | 446 kts | 256° |
| 2026-05-07 18:23 | 54.74611 | 47.48915 | 22219 ft | 449 kts | 256° |
| 2026-05-07 18:23 | 54.73816 | 47.43725 | 22832 ft | 452 kts | 256° |
| 2026-05-07 18:23 | 54.73016 | 47.38499 | 23439 ft | 455 kts | 256° |
| 2026-05-07 18:24 | 54.72202 | 47.33159 | 24007 ft | 458 kts | 255° |
| 2026-05-07 18:24 | 54.71405 | 47.27934 | 24519 ft | 462 kts | 255° |
| 2026-05-07 18:24 | 54.70525 | 47.22428 | 25022 ft | 467 kts | 252° |
| 2026-05-07 18:24 | 54.69312 | 47.17224 | 25488 ft | 471 kts | 244° |
| 2026-05-07 18:25 | 54.67667 | 47.12368 | 25948 ft | 476 kts | 236° |
| 2026-05-07 18:25 | 54.65581 | 47.07932 | 26482 ft | 479 kts | 226° |
| 2026-05-07 18:25 | 54.63110 | 47.04139 | 26918 ft | 484 kts | 218° |
| 2026-05-07 18:25 | 54.60320 | 47.00922 | 27392 ft | 487 kts | 210° |
| 2026-05-07 18:26 | 54.57249 | 46.98349 | 27857 ft | 491 kts | 202° |
| 2026-05-07 18:26 | 54.54004 | 46.96552 | 28473 ft | 491 kts | 194° |
| 2026-05-07 18:26 | 54.50674 | 46.95339 | 29038 ft | 491 kts | 192° |
| 2026-05-07 18:26 | 54.47336 | 46.94204 | 29689 ft | 489 kts | 192° |
| 2026-05-07 18:27 | 54.44028 | 46.93041 | 30313 ft | 488 kts | 192° |
| 2026-05-07 18:27 | 54.40696 | 46.91837 | 30905 ft | 486 kts | 192° |
| 2026-05-07 18:27 | 54.37400 | 46.90623 | 31434 ft | 484 kts | 193° |
| 2026-05-07 18:27 | 54.34065 | 46.89379 | 31879 ft | 483 kts | 193° |
| 2026-05-07 18:28 | 54.30812 | 46.88157 | 31912 ft | 482 kts | 193° |
| 2026-05-07 18:28 | 54.24266 | 46.85686 | 31937 ft | 482 kts | 193° |
| 2026-05-07 18:29 | 54.17655 | 46.83511 | 31945 ft | 484 kts | 191° |
| 2026-05-07 18:29 | 54.11044 | 46.81446 | 31947 ft | 484 kts | 191° |
| 2026-05-07 18:30 | 54.04487 | 46.79356 | 31949 ft | 483 kts | 191° |
| 2026-05-07 18:30 | 53.97898 | 46.77286 | 31945 ft | 483 kts | 191° |
| 2026-05-07 18:31 | 53.91274 | 46.75270 | 31947 ft | 483 kts | 191° |
| 2026-05-07 18:31 | 53.84697 | 46.73249 | 31947 ft | 484 kts | 191° |
| 2026-05-07 18:32 | 53.78088 | 46.71214 | 31945 ft | 484 kts | 191° |
| 2026-05-07 18:32 | 53.71485 | 46.69107 | 31945 ft | 484 kts | 192° |
| 2026-05-07 18:33 | 53.64876 | 46.66975 | 31944 ft | 483 kts | 192° |
| 2026-05-07 18:33 | 53.58270 | 46.64848 | 31945 ft | 483 kts | 192° |
| 2026-05-07 18:34 | 53.51675 | 46.62733 | 31942 ft | 484 kts | 192° |
| 2026-05-07 18:34 | 53.45021 | 46.60629 | 31943 ft | 485 kts | 191° |